sensor_id;sensor_type;location;lat;lon;timestamp;P1;durP1;ratioP1;P2;durP2;ratioP2
13704;SDS011;6924;52.122;9.952;2022-12-18T00:01:45;12.90;;;7.40;;
13704;SDS011;6924;52.122;9.952;2022-12-18T00:04:15;9.80;;;6.57;;
13704;SDS011;6924;52.122;9.952;2022-12-18T00:06:45;7.80;;;5.80;;
13704;SDS011;6924;52.122;9.952;2022-12-18T00:09:13;8.03;;;5.30;;
13704;SDS011;6924;52.122;9.952;2022-12-18T00:11:40;9.20;;;5.80;;
13704;SDS011;6924;52.122;9.952;2022-12-18T00:14:06;8.17;;;6.57;;
13704;SDS011;6924;52.122;9.952;2022-12-18T00:16:33;15.20;;;7.93;;
13704;SDS011;6924;52.122;9.952;2022-12-18T00:19:02;11.47;;;7.83;;
13704;SDS011;6924;52.122;9.952;2022-12-18T00:21:30;9.13;;;6.57;;
13704;SDS011;6924;52.122;9.952;2022-12-18T00:23:58;6.93;;;5.37;;
13704;SDS011;6924;52.122;9.952;2022-12-18T00:26:27;9.73;;;6.33;;
13704;SDS011;6924;52.122;9.952;2022-12-18T00:28:57;6.73;;;5.23;;
13704;SDS011;6924;52.122;9.952;2022-12-18T00:31:25;6.77;;;5.03;;
13704;SDS011;6924;52.122;9.952;2022-12-18T00:33:53;8.97;;;6.03;;
13704;SDS011;6924;52.122;9.952;2022-12-18T00:36:20;8.50;;;6.10;;
13704;SDS011;6924;52.122;9.952;2022-12-18T00:38:48;8.60;;;6.67;;
13704;SDS011;6924;52.122;9.952;2022-12-18T00:41:16;8.30;;;6.30;;
13704;SDS011;6924;52.122;9.952;2022-12-18T00:44:05;9.37;;;5.70;;
13704;SDS011;6924;52.122;9.952;2022-12-18T00:46:32;8.40;;;5.83;;
13704;SDS011;6924;52.122;9.952;2022-12-18T00:48:59;8.00;;;5.97;;
13704;SDS011;6924;52.122;9.952;2022-12-18T00:51:26;6.87;;;5.37;;
13704;SDS011;6924;52.122;9.952;2022-12-18T00:53:52;5.77;;;5.27;;
13704;SDS011;6924;52.122;9.952;2022-12-18T00:56:19;7.57;;;5.53;;
13704;SDS011;6924;52.122;9.952;2022-12-18T00:58:45;9.13;;;5.73;;
13704;SDS011;6924;52.122;9.952;2022-12-18T01:01:13;5.13;;;4.30;;
13704;SDS011;6924;52.122;9.952;2022-12-18T01:03:40;8.40;;;5.60;;
13704;SDS011;6924;52.122;9.952;2022-12-18T01:06:06;6.27;;;5.33;;
13704;SDS011;6924;52.122;9.952;2022-12-18T01:08:34;7.03;;;5.57;;
13704;SDS011;6924;52.122;9.952;2022-12-18T01:11:00;5.70;;;5.10;;
13704;SDS011;6924;52.122;9.952;2022-12-18T01:13:27;5.40;;;4.77;;
13704;SDS011;6924;52.122;9.952;2022-12-18T01:15:54;6.37;;;5.50;;
13704;SDS011;6924;52.122;9.952;2022-12-18T01:18:22;6.00;;;4.97;;
13704;SDS011;6924;52.122;9.952;2022-12-18T01:20:48;6.57;;;4.97;;
13704;SDS011;6924;52.122;9.952;2022-12-18T01:23:15;6.60;;;4.57;;
13704;SDS011;6924;52.122;9.952;2022-12-18T01:25:41;8.07;;;5.23;;
13704;SDS011;6924;52.122;9.952;2022-12-18T01:28:08;11.63;;;5.50;;
13704;SDS011;6924;52.122;9.952;2022-12-18T01:30:34;8.47;;;5.93;;
13704;SDS011;6924;52.122;9.952;2022-12-18T01:33:00;5.73;;;4.97;;
13704;SDS011;6924;52.122;9.952;2022-12-18T01:35:28;6.40;;;5.03;;
13704;SDS011;6924;52.122;9.952;2022-12-18T01:37:55;6.07;;;5.17;;
13704;SDS011;6924;52.122;9.952;2022-12-18T01:40:21;9.67;;;5.80;;
13704;SDS011;6924;52.122;9.952;2022-12-18T01:42:49;9.47;;;5.07;;
13704;SDS011;6924;52.122;9.952;2022-12-18T01:45:24;10.93;;;5.23;;
13704;SDS011;6924;52.122;9.952;2022-12-18T01:47:53;6.73;;;5.57;;
13704;SDS011;6924;52.122;9.952;2022-12-18T01:50:21;7.10;;;5.97;;
13704;SDS011;6924;52.122;9.952;2022-12-18T01:52:52;7.53;;;6.00;;
13704;SDS011;6924;52.122;9.952;2022-12-18T01:55:22;6.87;;;5.77;;
13704;SDS011;6924;52.122;9.952;2022-12-18T01:57:51;8.27;;;6.10;;
13704;SDS011;6924;52.122;9.952;2022-12-18T02:00:20;7.33;;;5.67;;
13704;SDS011;6924;52.122;9.952;2022-12-18T02:02:48;6.83;;;4.27;;
13704;SDS011;6924;52.122;9.952;2022-12-18T02:05:15;6.33;;;4.57;;
13704;SDS011;6924;52.122;9.952;2022-12-18T02:07:45;5.07;;;4.57;;
13704;SDS011;6924;52.122;9.952;2022-12-18T02:10:26;5.60;;;4.77;;
13704;SDS011;6924;52.122;9.952;2022-12-18T02:12:57;6.57;;;5.43;;
13704;SDS011;6924;52.122;9.952;2022-12-18T02:15:31;6.13;;;5.43;;
13704;SDS011;6924;52.122;9.952;2022-12-18T02:18:02;5.33;;;4.50;;
13704;SDS011;6924;52.122;9.952;2022-12-18T02:20:35;6.57;;;5.10;;
13704;SDS011;6924;52.122;9.952;2022-12-18T02:23:11;6.63;;;5.43;;
13704;SDS011;6924;52.122;9.952;2022-12-18T02:25:58;5.80;;;5.20;;
13704;SDS011;6924;52.122;9.952;2022-12-18T02:28:31;6.93;;;4.37;;
13704;SDS011;6924;52.122;9.952;2022-12-18T02:31:01;6.53;;;4.37;;
13704;SDS011;6924;52.122;9.952;2022-12-18T02:33:31;6.27;;;4.77;;
13704;SDS011;6924;52.122;9.952;2022-12-18T02:36:01;11.10;;;6.80;;
13704;SDS011;6924;52.122;9.952;2022-12-18T02:38:30;5.77;;;4.60;;
13704;SDS011;6924;52.122;9.952;2022-12-18T02:40:59;6.47;;;4.80;;
13704;SDS011;6924;52.122;9.952;2022-12-18T02:43:26;6.97;;;4.63;;
13704;SDS011;6924;52.122;9.952;2022-12-18T02:45:53;5.07;;;4.23;;
13704;SDS011;6924;52.122;9.952;2022-12-18T02:48:22;7.10;;;4.67;;
13704;SDS011;6924;52.122;9.952;2022-12-18T02:50:55;5.37;;;4.87;;
13704;SDS011;6924;52.122;9.952;2022-12-18T02:53:30;7.93;;;5.23;;
13704;SDS011;6924;52.122;9.952;2022-12-18T02:56:03;6.40;;;5.47;;
13704;SDS011;6924;52.122;9.952;2022-12-18T02:58:37;5.07;;;4.57;;
13704;SDS011;6924;52.122;9.952;2022-12-18T03:01:11;7.03;;;4.60;;
13704;SDS011;6924;52.122;9.952;2022-12-18T03:03:43;9.50;;;5.30;;
13704;SDS011;6924;52.122;9.952;2022-12-18T03:06:18;8.57;;;5.77;;
13704;SDS011;6924;52.122;9.952;2022-12-18T03:08:50;5.80;;;5.20;;
13704;SDS011;6924;52.122;9.952;2022-12-18T03:11:21;10.27;;;6.20;;
13704;SDS011;6924;52.122;9.952;2022-12-18T03:14:08;5.57;;;4.20;;
13704;SDS011;6924;52.122;9.952;2022-12-18T03:16:36;6.70;;;5.73;;
13704;SDS011;6924;52.122;9.952;2022-12-18T03:19:04;5.17;;;4.67;;
13704;SDS011;6924;52.122;9.952;2022-12-18T03:21:37;8.20;;;4.77;;
13704;SDS011;6924;52.122;9.952;2022-12-18T03:24:07;6.67;;;4.83;;
13704;SDS011;6924;52.122;9.952;2022-12-18T03:26:36;8.60;;;5.33;;
13704;SDS011;6924;52.122;9.952;2022-12-18T03:29:07;7.13;;;4.93;;
13704;SDS011;6924;52.122;9.952;2022-12-18T03:31:39;5.17;;;4.27;;
13704;SDS011;6924;52.122;9.952;2022-12-18T03:34:08;5.23;;;4.63;;
13704;SDS011;6924;52.122;9.952;2022-12-18T03:36:38;7.37;;;5.03;;
13704;SDS011;6924;52.122;9.952;2022-12-18T03:39:05;11.50;;;5.00;;
13704;SDS011;6924;52.122;9.952;2022-12-18T03:41:32;7.10;;;4.40;;
13704;SDS011;6924;52.122;9.952;2022-12-18T03:44:07;8.53;;;5.20;;
13704;SDS011;6924;52.122;9.952;2022-12-18T03:46:40;4.77;;;3.90;;
13704;SDS011;6924;52.122;9.952;2022-12-18T03:49:14;4.77;;;4.20;;
13704;SDS011;6924;52.122;9.952;2022-12-18T03:51:50;5.87;;;4.57;;
13704;SDS011;6924;52.122;9.952;2022-12-18T03:54:20;5.47;;;4.23;;
13704;SDS011;6924;52.122;9.952;2022-12-18T03:56:48;5.73;;;4.37;;
13704;SDS011;6924;52.122;9.952;2022-12-18T03:59:21;7.00;;;4.50;;
13704;SDS011;6924;52.122;9.952;2022-12-18T04:01:49;5.27;;;4.77;;
13704;SDS011;6924;52.122;9.952;2022-12-18T04:04:18;6.83;;;5.03;;
13704;SDS011;6924;52.122;9.952;2022-12-18T04:06:47;7.90;;;4.40;;
13704;SDS011;6924;52.122;9.952;2022-12-18T04:09:16;7.43;;;4.17;;
13704;SDS011;6924;52.122;9.952;2022-12-18T04:11:42;4.60;;;4.10;;
13704;SDS011;6924;52.122;9.952;2022-12-18T04:14:09;8.37;;;5.30;;
13704;SDS011;6924;52.122;9.952;2022-12-18T04:16:37;5.87;;;4.40;;
13704;SDS011;6924;52.122;9.952;2022-12-18T04:19:04;4.67;;;4.13;;
13704;SDS011;6924;52.122;9.952;2022-12-18T04:21:31;5.80;;;4.47;;
13704;SDS011;6924;52.122;9.952;2022-12-18T04:23:57;7.10;;;4.57;;
13704;SDS011;6924;52.122;9.952;2022-12-18T04:26:24;7.00;;;5.30;;
13704;SDS011;6924;52.122;9.952;2022-12-18T04:28:50;6.60;;;4.90;;
13704;SDS011;6924;52.122;9.952;2022-12-18T04:31:17;5.57;;;4.23;;
13704;SDS011;6924;52.122;9.952;2022-12-18T04:33:45;6.23;;;5.10;;
13704;SDS011;6924;52.122;9.952;2022-12-18T04:36:11;6.93;;;4.70;;
13704;SDS011;6924;52.122;9.952;2022-12-18T04:38:38;8.73;;;4.47;;
13704;SDS011;6924;52.122;9.952;2022-12-18T04:41:04;9.10;;;4.37;;
13704;SDS011;6924;52.122;9.952;2022-12-18T04:43:31;6.00;;;4.37;;
13704;SDS011;6924;52.122;9.952;2022-12-18T04:46:01;4.77;;;3.63;;
13704;SDS011;6924;52.122;9.952;2022-12-18T04:48:28;4.70;;;3.93;;
13704;SDS011;6924;52.122;9.952;2022-12-18T04:50:56;4.30;;;3.87;;
13704;SDS011;6924;52.122;9.952;2022-12-18T04:53:22;5.90;;;3.87;;
13704;SDS011;6924;52.122;9.952;2022-12-18T04:55:49;7.00;;;3.73;;
13704;SDS011;6924;52.122;9.952;2022-12-18T04:58:16;6.17;;;4.07;;
13704;SDS011;6924;52.122;9.952;2022-12-18T05:00:42;5.77;;;3.80;;
13704;SDS011;6924;52.122;9.952;2022-12-18T05:03:09;7.07;;;4.33;;
13704;SDS011;6924;52.122;9.952;2022-12-18T05:05:36;4.43;;;3.63;;
13704;SDS011;6924;52.122;9.952;2022-12-18T05:08:04;8.23;;;4.20;;
13704;SDS011;6924;52.122;9.952;2022-12-18T05:10:30;6.20;;;3.87;;
13704;SDS011;6924;52.122;9.952;2022-12-18T05:12:57;6.03;;;3.87;;
13704;SDS011;6924;52.122;9.952;2022-12-18T05:15:27;3.67;;;3.33;;
13704;SDS011;6924;52.122;9.952;2022-12-18T05:17:55;4.30;;;3.90;;
13704;SDS011;6924;52.122;9.952;2022-12-18T05:20:22;7.30;;;4.90;;
13704;SDS011;6924;52.122;9.952;2022-12-18T05:22:48;5.23;;;4.00;;
13704;SDS011;6924;52.122;9.952;2022-12-18T05:25:16;4.80;;;3.30;;
13704;SDS011;6924;52.122;9.952;2022-12-18T05:27:43;5.60;;;4.00;;
13704;SDS011;6924;52.122;9.952;2022-12-18T05:30:11;6.33;;;3.93;;
13704;SDS011;6924;52.122;9.952;2022-12-18T05:32:38;5.10;;;3.37;;
13704;SDS011;6924;52.122;9.952;2022-12-18T05:35:07;4.67;;;4.17;;
13704;SDS011;6924;52.122;9.952;2022-12-18T05:37:34;3.80;;;3.40;;
13704;SDS011;6924;52.122;9.952;2022-12-18T05:40:01;5.53;;;3.40;;
13704;SDS011;6924;52.122;9.952;2022-12-18T05:42:29;4.70;;;3.70;;
13704;SDS011;6924;52.122;9.952;2022-12-18T05:44:56;4.57;;;2.57;;
13704;SDS011;6924;52.122;9.952;2022-12-18T05:47:22;5.23;;;3.20;;
13704;SDS011;6924;52.122;9.952;2022-12-18T05:49:49;4.57;;;4.13;;
13704;SDS011;6924;52.122;9.952;2022-12-18T05:52:16;5.80;;;4.67;;
13704;SDS011;6924;52.122;9.952;2022-12-18T05:54:42;5.90;;;3.87;;
13704;SDS011;6924;52.122;9.952;2022-12-18T05:57:09;6.50;;;4.67;;
13704;SDS011;6924;52.122;9.952;2022-12-18T05:59:36;4.23;;;3.80;;
13704;SDS011;6924;52.122;9.952;2022-12-18T06:02:03;5.27;;;3.60;;
13704;SDS011;6924;52.122;9.952;2022-12-18T06:04:30;6.50;;;3.80;;
13704;SDS011;6924;52.122;9.952;2022-12-18T06:06:57;8.23;;;4.50;;
13704;SDS011;6924;52.122;9.952;2022-12-18T06:09:23;4.63;;;3.23;;
13704;SDS011;6924;52.122;9.952;2022-12-18T06:11:51;7.17;;;3.90;;
13704;SDS011;6924;52.122;9.952;2022-12-18T06:14:17;4.53;;;3.87;;
13704;SDS011;6924;52.122;9.952;2022-12-18T06:16:45;4.37;;;3.83;;
13704;SDS011;6924;52.122;9.952;2022-12-18T06:19:13;6.13;;;4.50;;
13704;SDS011;6924;52.122;9.952;2022-12-18T06:21:41;4.90;;;3.80;;
13704;SDS011;6924;52.122;9.952;2022-12-18T06:24:08;9.17;;;3.80;;
13704;SDS011;6924;52.122;9.952;2022-12-18T06:26:36;10.70;;;4.60;;
13704;SDS011;6924;52.122;9.952;2022-12-18T06:29:03;9.63;;;5.03;;
13704;SDS011;6924;52.122;9.952;2022-12-18T06:31:30;4.67;;;3.93;;
13704;SDS011;6924;52.122;9.952;2022-12-18T06:33:58;3.27;;;2.97;;
13704;SDS011;6924;52.122;9.952;2022-12-18T06:36:27;10.07;;;3.50;;
13704;SDS011;6924;52.122;9.952;2022-12-18T06:38:54;4.57;;;3.67;;
13704;SDS011;6924;52.122;9.952;2022-12-18T06:41:20;6.97;;;4.33;;
13704;SDS011;6924;52.122;9.952;2022-12-18T06:43:47;6.47;;;3.67;;
13704;SDS011;6924;52.122;9.952;2022-12-18T06:46:14;5.37;;;3.73;;
13704;SDS011;6924;52.122;9.952;2022-12-18T06:48:40;4.70;;;3.33;;
13704;SDS011;6924;52.122;9.952;2022-12-18T06:51:08;5.60;;;3.67;;
13704;SDS011;6924;52.122;9.952;2022-12-18T06:53:35;5.23;;;3.53;;
13704;SDS011;6924;52.122;9.952;2022-12-18T06:56:01;4.37;;;3.33;;
13704;SDS011;6924;52.122;9.952;2022-12-18T06:58:28;4.20;;;3.03;;
13704;SDS011;6924;52.122;9.952;2022-12-18T07:00:58;5.63;;;3.37;;
13704;SDS011;6924;52.122;9.952;2022-12-18T07:03:26;3.60;;;3.10;;
13704;SDS011;6924;52.122;9.952;2022-12-18T07:05:52;5.10;;;3.27;;
13704;SDS011;6924;52.122;9.952;2022-12-18T07:08:20;4.27;;;3.77;;
13704;SDS011;6924;52.122;9.952;2022-12-18T07:10:47;6.33;;;4.13;;
13704;SDS011;6924;52.122;9.952;2022-12-18T07:13:14;5.13;;;4.20;;
13704;SDS011;6924;52.122;9.952;2022-12-18T07:15:41;6.10;;;3.63;;
13704;SDS011;6924;52.122;9.952;2022-12-18T07:18:07;7.80;;;6.60;;
13704;SDS011;6924;52.122;9.952;2022-12-18T07:20:34;8.23;;;6.23;;
13704;SDS011;6924;52.122;9.952;2022-12-18T07:23:01;6.73;;;5.20;;
13704;SDS011;6924;52.122;9.952;2022-12-18T07:25:29;6.17;;;5.17;;
13704;SDS011;6924;52.122;9.952;2022-12-18T07:27:55;6.93;;;5.20;;
13704;SDS011;6924;52.122;9.952;2022-12-18T07:30:22;4.40;;;4.00;;
13704;SDS011;6924;52.122;9.952;2022-12-18T07:32:48;7.03;;;3.97;;
13704;SDS011;6924;52.122;9.952;2022-12-18T07:35:15;14.00;;;8.77;;
13704;SDS011;6924;52.122;9.952;2022-12-18T07:37:41;10.40;;;5.10;;
13704;SDS011;6924;52.122;9.952;2022-12-18T07:40:08;4.77;;;4.10;;
13704;SDS011;6924;52.122;9.952;2022-12-18T07:42:37;4.60;;;3.40;;
13704;SDS011;6924;52.122;9.952;2022-12-18T07:45:04;4.33;;;3.57;;
13704;SDS011;6924;52.122;9.952;2022-12-18T07:47:33;4.77;;;3.60;;
13704;SDS011;6924;52.122;9.952;2022-12-18T07:50:01;4.10;;;2.90;;
13704;SDS011;6924;52.122;9.952;2022-12-18T07:52:27;4.70;;;3.27;;
13704;SDS011;6924;52.122;9.952;2022-12-18T07:54:54;3.67;;;2.97;;
13704;SDS011;6924;52.122;9.952;2022-12-18T07:57:20;3.77;;;3.37;;
13704;SDS011;6924;52.122;9.952;2022-12-18T07:59:48;3.20;;;2.83;;
13704;SDS011;6924;52.122;9.952;2022-12-18T08:02:15;2.97;;;2.67;;
13704;SDS011;6924;52.122;9.952;2022-12-18T08:04:41;3.63;;;2.77;;
13704;SDS011;6924;52.122;9.952;2022-12-18T08:07:08;4.20;;;2.93;;
13704;SDS011;6924;52.122;9.952;2022-12-18T08:09:34;3.40;;;3.00;;
13704;SDS011;6924;52.122;9.952;2022-12-18T08:12:01;3.87;;;3.20;;
13704;SDS011;6924;52.122;9.952;2022-12-18T08:14:27;2.83;;;2.20;;
13704;SDS011;6924;52.122;9.952;2022-12-18T08:16:55;3.77;;;2.87;;
13704;SDS011;6924;52.122;9.952;2022-12-18T08:19:22;3.50;;;3.20;;
13704;SDS011;6924;52.122;9.952;2022-12-18T08:21:48;3.73;;;2.90;;
13704;SDS011;6924;52.122;9.952;2022-12-18T08:24:15;3.33;;;2.20;;
13704;SDS011;6924;52.122;9.952;2022-12-18T08:26:41;5.27;;;2.77;;
13704;SDS011;6924;52.122;9.952;2022-12-18T08:29:08;3.17;;;2.77;;
13704;SDS011;6924;52.122;9.952;2022-12-18T08:31:34;2.40;;;2.13;;
13704;SDS011;6924;52.122;9.952;2022-12-18T08:34:02;8.80;;;2.97;;
13704;SDS011;6924;52.122;9.952;2022-12-18T08:36:29;2.53;;;1.57;;
13704;SDS011;6924;52.122;9.952;2022-12-18T08:38:56;4.20;;;1.70;;
13704;SDS011;6924;52.122;9.952;2022-12-18T08:41:22;2.40;;;1.93;;
13704;SDS011;6924;52.122;9.952;2022-12-18T08:43:49;4.57;;;1.73;;
13704;SDS011;6924;52.122;9.952;2022-12-18T08:46:34;2.90;;;2.00;;
13704;SDS011;6924;52.122;9.952;2022-12-18T08:49:03;6.27;;;2.33;;
13704;SDS011;6924;52.122;9.952;2022-12-18T08:51:30;3.33;;;1.70;;
13704;SDS011;6924;52.122;9.952;2022-12-18T08:53:57;2.40;;;1.47;;
13704;SDS011;6924;52.122;9.952;2022-12-18T08:56:24;3.47;;;1.90;;
13704;SDS011;6924;52.122;9.952;2022-12-18T08:58:51;2.13;;;1.40;;
13704;SDS011;6924;52.122;9.952;2022-12-18T09:01:17;3.03;;;2.00;;
13704;SDS011;6924;52.122;9.952;2022-12-18T09:03:44;2.37;;;2.07;;
13704;SDS011;6924;52.122;9.952;2022-12-18T09:06:14;3.63;;;2.37;;
13704;SDS011;6924;52.122;9.952;2022-12-18T09:08:41;3.00;;;2.20;;
13704;SDS011;6924;52.122;9.952;2022-12-18T09:11:10;3.43;;;2.10;;
13704;SDS011;6924;52.122;9.952;2022-12-18T09:13:39;1.83;;;1.70;;
13704;SDS011;6924;52.122;9.952;2022-12-18T09:16:06;3.87;;;2.20;;
13704;SDS011;6924;52.122;9.952;2022-12-18T09:18:32;2.83;;;1.77;;
13704;SDS011;6924;52.122;9.952;2022-12-18T09:20:59;3.63;;;1.73;;
13704;SDS011;6924;52.122;9.952;2022-12-18T09:23:27;2.30;;;1.70;;
13704;SDS011;6924;52.122;9.952;2022-12-18T09:25:58;2.83;;;1.70;;
13704;SDS011;6924;52.122;9.952;2022-12-18T09:28:25;2.03;;;1.63;;
13704;SDS011;6924;52.122;9.952;2022-12-18T09:30:52;1.40;;;1.30;;
13704;SDS011;6924;52.122;9.952;2022-12-18T09:33:19;1.80;;;1.47;;
13704;SDS011;6924;52.122;9.952;2022-12-18T09:35:45;2.93;;;1.80;;
13704;SDS011;6924;52.122;9.952;2022-12-18T09:38:12;1.83;;;1.60;;
13704;SDS011;6924;52.122;9.952;2022-12-18T09:40:42;1.80;;;1.53;;
13704;SDS011;6924;52.122;9.952;2022-12-18T09:43:13;2.57;;;1.63;;
13704;SDS011;6924;52.122;9.952;2022-12-18T09:45:43;2.30;;;1.80;;
13704;SDS011;6924;52.122;9.952;2022-12-18T09:48:14;3.57;;;1.77;;
13704;SDS011;6924;52.122;9.952;2022-12-18T09:50:45;2.50;;;1.33;;
13704;SDS011;6924;52.122;9.952;2022-12-18T09:53:14;5.53;;;1.67;;
13704;SDS011;6924;52.122;9.952;2022-12-18T09:55:45;1.60;;;1.47;;
13704;SDS011;6924;52.122;9.952;2022-12-18T09:58:14;2.00;;;1.33;;
13704;SDS011;6924;52.122;9.952;2022-12-18T10:00:46;2.63;;;1.50;;
13704;SDS011;6924;52.122;9.952;2022-12-18T10:03:13;1.93;;;1.30;;
13704;SDS011;6924;52.122;9.952;2022-12-18T10:05:43;1.53;;;1.20;;
13704;SDS011;6924;52.122;9.952;2022-12-18T10:08:22;1.70;;;1.10;;
13704;SDS011;6924;52.122;9.952;2022-12-18T10:10:57;1.60;;;1.20;;
13704;SDS011;6924;52.122;9.952;2022-12-18T10:13:29;1.67;;;0.80;;
13704;SDS011;6924;52.122;9.952;2022-12-18T10:16:06;1.20;;;1.10;;
13704;SDS011;6924;52.122;9.952;2022-12-18T10:18:53;1.73;;;1.23;;
13704;SDS011;6924;52.122;9.952;2022-12-18T10:21:29;2.10;;;1.10;;
13704;SDS011;6924;52.122;9.952;2022-12-18T10:24:01;1.90;;;0.90;;
13704;SDS011;6924;52.122;9.952;2022-12-18T10:26:39;1.77;;;1.20;;
13704;SDS011;6924;52.122;9.952;2022-12-18T10:29:08;1.90;;;0.90;;
13704;SDS011;6924;52.122;9.952;2022-12-18T10:31:37;1.77;;;0.70;;
13704;SDS011;6924;52.122;9.952;2022-12-18T10:34:03;0.97;;;0.87;;
13704;SDS011;6924;52.122;9.952;2022-12-18T10:36:30;2.20;;;1.30;;
13704;SDS011;6924;52.122;9.952;2022-12-18T10:38:58;1.53;;;1.00;;
13704;SDS011;6924;52.122;9.952;2022-12-18T10:41:42;2.00;;;1.17;;
13704;SDS011;6924;52.122;9.952;2022-12-18T10:44:10;1.17;;;1.07;;
13704;SDS011;6924;52.122;9.952;2022-12-18T10:46:41;1.70;;;1.20;;
13704;SDS011;6924;52.122;9.952;2022-12-18T10:49:17;2.37;;;1.37;;
13704;SDS011;6924;52.122;9.952;2022-12-18T10:51:46;1.30;;;0.97;;
13704;SDS011;6924;52.122;9.952;2022-12-18T10:54:13;4.10;;;1.27;;
13704;SDS011;6924;52.122;9.952;2022-12-18T10:56:43;2.43;;;1.60;;
13704;SDS011;6924;52.122;9.952;2022-12-18T10:59:11;2.40;;;1.57;;
13704;SDS011;6924;52.122;9.952;2022-12-18T11:01:46;1.43;;;1.27;;
13704;SDS011;6924;52.122;9.952;2022-12-18T11:04:16;1.80;;;1.40;;
13704;SDS011;6924;52.122;9.952;2022-12-18T11:06:52;3.83;;;1.87;;
13704;SDS011;6924;52.122;9.952;2022-12-18T11:09:23;1.90;;;1.50;;
13704;SDS011;6924;52.122;9.952;2022-12-18T11:11:53;1.87;;;1.60;;
13704;SDS011;6924;52.122;9.952;2022-12-18T11:14:21;2.60;;;1.60;;
13704;SDS011;6924;52.122;9.952;2022-12-18T11:16:50;2.63;;;1.20;;
13704;SDS011;6924;52.122;9.952;2022-12-18T11:19:20;1.53;;;1.30;;
13704;SDS011;6924;52.122;9.952;2022-12-18T11:21:54;1.40;;;1.30;;
13704;SDS011;6924;52.122;9.952;2022-12-18T11:24:23;2.47;;;1.03;;
13704;SDS011;6924;52.122;9.952;2022-12-18T11:26:55;4.70;;;1.53;;
13704;SDS011;6924;52.122;9.952;2022-12-18T11:29:23;4.13;;;1.50;;
13704;SDS011;6924;52.122;9.952;2022-12-18T11:31:55;1.80;;;1.33;;
13704;SDS011;6924;52.122;9.952;2022-12-18T11:34:49;1.90;;;1.30;;
13704;SDS011;6924;52.122;9.952;2022-12-18T11:37:19;2.13;;;1.23;;
13704;SDS011;6924;52.122;9.952;2022-12-18T11:39:46;2.37;;;1.53;;
13704;SDS011;6924;52.122;9.952;2022-12-18T11:42:22;2.53;;;1.27;;
13704;SDS011;6924;52.122;9.952;2022-12-18T11:44:55;1.67;;;1.40;;
13704;SDS011;6924;52.122;9.952;2022-12-18T11:47:27;2.30;;;1.30;;
13704;SDS011;6924;52.122;9.952;2022-12-18T11:49:59;1.43;;;1.33;;
13704;SDS011;6924;52.122;9.952;2022-12-18T11:52:28;1.20;;;1.00;;
13704;SDS011;6924;52.122;9.952;2022-12-18T11:55:05;1.87;;;1.10;;
13704;SDS011;6924;52.122;9.952;2022-12-18T11:57:41;4.53;;;1.67;;
13704;SDS011;6924;52.122;9.952;2022-12-18T12:00:18;2.00;;;1.63;;
13704;SDS011;6924;52.122;9.952;2022-12-18T12:02:56;2.93;;;1.00;;
13704;SDS011;6924;52.122;9.952;2022-12-18T12:05:45;1.53;;;1.10;;
13704;SDS011;6924;52.122;9.952;2022-12-18T12:08:21;2.13;;;1.43;;
13704;SDS011;6924;52.122;9.952;2022-12-18T12:11:01;2.43;;;1.47;;
13704;SDS011;6924;52.122;9.952;2022-12-18T12:13:39;2.20;;;1.50;;
13704;SDS011;6924;52.122;9.952;2022-12-18T12:16:15;2.20;;;1.30;;
13704;SDS011;6924;52.122;9.952;2022-12-18T12:18:53;1.83;;;1.40;;
13704;SDS011;6924;52.122;9.952;2022-12-18T12:21:33;3.53;;;1.50;;
13704;SDS011;6924;52.122;9.952;2022-12-18T12:24:09;2.43;;;1.43;;
13704;SDS011;6924;52.122;9.952;2022-12-18T12:26:49;3.03;;;1.37;;
13704;SDS011;6924;52.122;9.952;2022-12-18T12:29:29;1.63;;;1.53;;
13704;SDS011;6924;52.122;9.952;2022-12-18T12:32:07;2.43;;;1.63;;
13704;SDS011;6924;52.122;9.952;2022-12-18T12:34:49;2.23;;;1.50;;
13704;SDS011;6924;52.122;9.952;2022-12-18T12:37:26;2.23;;;1.70;;
13704;SDS011;6924;52.122;9.952;2022-12-18T12:40:01;2.40;;;1.87;;
13704;SDS011;6924;52.122;9.952;2022-12-18T12:42:30;2.43;;;2.00;;
13704;SDS011;6924;52.122;9.952;2022-12-18T12:45:23;3.03;;;1.53;;
13704;SDS011;6924;52.122;9.952;2022-12-18T12:47:54;1.97;;;1.60;;
13704;SDS011;6924;52.122;9.952;2022-12-18T12:50:24;3.90;;;1.80;;
13704;SDS011;6924;52.122;9.952;2022-12-18T12:52:52;3.27;;;2.37;;
13704;SDS011;6924;52.122;9.952;2022-12-18T12:55:22;3.40;;;2.30;;
13704;SDS011;6924;52.122;9.952;2022-12-18T12:57:55;5.13;;;2.80;;
13704;SDS011;6924;52.122;9.952;2022-12-18T13:00:27;4.03;;;2.87;;
13704;SDS011;6924;52.122;9.952;2022-12-18T13:03:04;4.37;;;3.17;;
13704;SDS011;6924;52.122;9.952;2022-12-18T13:05:39;3.97;;;2.83;;
13704;SDS011;6924;52.122;9.952;2022-12-18T13:08:11;3.13;;;2.40;;
13704;SDS011;6924;52.122;9.952;2022-12-18T13:10:47;4.77;;;2.83;;
13704;SDS011;6924;52.122;9.952;2022-12-18T13:13:14;4.40;;;3.20;;
13704;SDS011;6924;52.122;9.952;2022-12-18T13:15:42;5.37;;;3.03;;
13704;SDS011;6924;52.122;9.952;2022-12-18T13:18:11;4.07;;;3.20;;
13704;SDS011;6924;52.122;9.952;2022-12-18T13:20:42;3.87;;;3.37;;
13704;SDS011;6924;52.122;9.952;2022-12-18T13:23:23;5.23;;;2.77;;
13704;SDS011;6924;52.122;9.952;2022-12-18T13:25:54;3.57;;;3.00;;
13704;SDS011;6924;52.122;9.952;2022-12-18T13:28:21;4.23;;;3.03;;
13704;SDS011;6924;52.122;9.952;2022-12-18T13:30:53;2.70;;;2.50;;
13704;SDS011;6924;52.122;9.952;2022-12-18T13:33:38;5.20;;;3.10;;
13704;SDS011;6924;52.122;9.952;2022-12-18T13:36:12;5.07;;;2.37;;
13704;SDS011;6924;52.122;9.952;2022-12-18T13:38:40;5.77;;;3.53;;
13704;SDS011;6924;52.122;9.952;2022-12-18T13:41:21;4.43;;;3.57;;
13704;SDS011;6924;52.122;9.952;2022-12-18T13:43:49;4.90;;;3.40;;
13704;SDS011;6924;52.122;9.952;2022-12-18T13:46:20;3.37;;;3.00;;
13704;SDS011;6924;52.122;9.952;2022-12-18T13:48:50;3.63;;;2.97;;
13704;SDS011;6924;52.122;9.952;2022-12-18T13:51:19;4.73;;;2.60;;
13704;SDS011;6924;52.122;9.952;2022-12-18T13:53:48;2.93;;;2.37;;
13704;SDS011;6924;52.122;9.952;2022-12-18T13:56:17;3.37;;;2.83;;
13704;SDS011;6924;52.122;9.952;2022-12-18T14:01:44;3.80;;;2.57;;
13704;SDS011;6924;52.122;9.952;2022-12-18T14:04:18;4.57;;;2.73;;
13704;SDS011;6924;52.122;9.952;2022-12-18T14:06:47;4.30;;;2.50;;
13704;SDS011;6924;52.122;9.952;2022-12-18T14:09:18;3.33;;;2.70;;
13704;SDS011;6924;52.122;9.952;2022-12-18T14:11:49;4.00;;;3.37;;
13704;SDS011;6924;52.122;9.952;2022-12-18T14:14:17;3.60;;;3.30;;
13704;SDS011;6924;52.122;9.952;2022-12-18T14:16:46;3.80;;;3.43;;
13704;SDS011;6924;52.122;9.952;2022-12-18T14:19:14;3.63;;;3.33;;
13704;SDS011;6924;52.122;9.952;2022-12-18T14:21:45;5.50;;;3.90;;
13704;SDS011;6924;52.122;9.952;2022-12-18T14:24:13;5.90;;;3.70;;
13704;SDS011;6924;52.122;9.952;2022-12-18T14:26:41;7.67;;;3.77;;
13704;SDS011;6924;52.122;9.952;2022-12-18T14:29:19;8.17;;;4.00;;
13704;SDS011;6924;52.122;9.952;2022-12-18T14:34:36;5.90;;;3.93;;
13704;SDS011;6924;52.122;9.952;2022-12-18T14:37:03;6.37;;;4.37;;
13704;SDS011;6924;52.122;9.952;2022-12-18T14:39:30;4.43;;;3.70;;
13704;SDS011;6924;52.122;9.952;2022-12-18T14:41:57;5.17;;;3.97;;
13704;SDS011;6924;52.122;9.952;2022-12-18T14:44:23;5.80;;;4.70;;
13704;SDS011;6924;52.122;9.952;2022-12-18T14:46:50;4.83;;;3.77;;
13704;SDS011;6924;52.122;9.952;2022-12-18T14:49:23;4.73;;;3.20;;
13704;SDS011;6924;52.122;9.952;2022-12-18T14:51:54;4.97;;;3.97;;
13704;SDS011;6924;52.122;9.952;2022-12-18T14:54:23;4.33;;;3.40;;
13704;SDS011;6924;52.122;9.952;2022-12-18T14:56:51;6.27;;;4.10;;
13704;SDS011;6924;52.122;9.952;2022-12-18T14:59:23;7.30;;;4.13;;
13704;SDS011;6924;52.122;9.952;2022-12-18T15:01:56;10.77;;;4.77;;
13704;SDS011;6924;52.122;9.952;2022-12-18T15:04:27;6.37;;;4.27;;
13704;SDS011;6924;52.122;9.952;2022-12-18T15:07:02;6.23;;;4.20;;
13704;SDS011;6924;52.122;9.952;2022-12-18T15:09:30;5.13;;;4.07;;
13704;SDS011;6924;52.122;9.952;2022-12-18T15:11:57;7.07;;;4.60;;
13704;SDS011;6924;52.122;9.952;2022-12-18T15:14:32;5.03;;;4.53;;
13704;SDS011;6924;52.122;9.952;2022-12-18T15:17:01;8.93;;;5.23;;
13704;SDS011;6924;52.122;9.952;2022-12-18T15:19:36;7.33;;;4.47;;
13704;SDS011;6924;52.122;9.952;2022-12-18T15:22:04;4.67;;;4.17;;